Tiempo atmosférico en la estación meteorológica de Las Cabezas de San Juan, Sevilla (105 m.)



Fecha
DESCASC
Temp. máxima en grados centígrados (hora)
DESCASC
Temp. mínima en grados centígrados (hora)
DESCASC
Temp. media en grados centígrados
DESCASC
Racha de viento máxima en m/sg (hora)
DESCASC
Velocidad máxima media en intervalos de 10 minutos(hora)
DESCASC
Precipitaciones diarias en mm
DESCASC
Precipitaciones de 00:00 a 06:00 en mm
DESCASC
Precipitaciones de 06:00 a 12:00 en mm
DESCASC
Precipitaciones de 12:00 a 18:00 en mm
DESCASC
Precipitaciones de 18:00 a 24:00 en mm
DESCASC
08-01-2021 14.8 (15:30) 6.4 (00:00) 10.6 13.61 (15:30) 8.61 (14:30) 31.6 8 9.6 4 10
07-01-2021 8.6 (16:50) 6.6 (00:00) 7.6 8.89 (02:00) 4.72 (19:10) 29.2 4.2 5 2.2 17.8
01-01-2021 12 (15:20) 5.2 (00:00) 8.6 6.39 (11:20) 3.89 (11:30) 1.2 1 0.2 0 0
11-01-2021 11.2 (16:00) 1.9 (00:00) 6.5 7.22 (12:20) 4.17 (12:20) 0.2 0.2 0 0 0
14-01-2021 11.3 (16:40) 0.2 (09:10) 5.8 4.17 (01:20) 3.33 (01:20) 0 0 0 0 0
09-01-2021 10.5 (15:10) 3.6 (00:00) 7 8.06 (18:30) 4.72 (18:30) 0.4 0 0 0 0.4
10-01-2021 8 (15:40) 2.4 (04:30) 5.2 4.72 (19:50) 2.22 (14:40) 1.8 0 0.4 0 1.4
12-01-2021 12.2 (15:50) 0.7 (00:00) 6.4 4.44 (09:50) 2.78 (09:50) 0 0 0 0 0
13-01-2021 13.1 (16:30) -0.7 (-00:0) 6.2 5.83 (14:30) 3.06 (13:00) 0 0 0 0 0
21-01-2021 16.7 (14:50) 10.3 (00:00) 13.5 11.39 (23:20) 7.22 (23:59) 1.4 0 1.4 0 0
15-01-2021 13.9 (15:40) 0 (00:00) 6.9 5.28 (15:50) 3.33 (16:00) 0 0 0 0 0
16-01-2021 16.7 (16:30) 1.6 (00:00) 9.2 9.72 (14:20) 5 (14:50) 0 0 0 0 0
17-01-2021 17.2 (17:00) 1.1 (00:00) 9.2 3.33 (17:10) 1.94 (04:50) 0 0 0 0 0
18-01-2021 15.7 (17:00) 1.3 (00:00) 8.5 5.83 (13:20) 3.33 (14:50) 0 0 0 0 0
19-01-2021 16.3 (16:00) 4.7 (00:00) 10.5 6.67 (14:20) 3.89 (13:40) 0 0 0 0 0
20-01-2021 13.9 (17:00) 10.9 (00:00) 12.4 14.17 (09:00) 9.17 (11:40) 23 0 10.6 12.2 0.2
23-12-2020 19.3 (15:40) 7.3 (03:10) 13.3 5.28 (05:50) 3.89 (05:40) 0 0 0 0 0
06-01-2021 12.5 (15:20) 1.2 (00:00) 6.9 6.94 (23:10) 3.33 (14:30) 10.6 0 0 0 10.6
05-01-2021 12.6 (16:00) 2.7 (00:00) 7.7 4.44 (00:40) 3.33 (00:40) 0 0 0 0 0
04-01-2021 12.2 (17:20) -0.3 (00:00) 5.9 5 (15:10) 3.06 (15:00) 0 0 0 0 0
03-01-2021 11.8 (15:50) -1.2 (-00:0) 5.3 4.17 (15:20) 1.94 (16:00) 0 0 0 0 0
02-01-2021 10.9 (16:10) 0.6 (00:00) 5.7 5.28 (15:20) 2.78 (15:30) 0 0 0 0 0
31-12-2020 12.5 (16:40) 1.3 (00:00) 6.9 4.72 (21:20) 3.33 (21:30) 0 0 0 0 0
30-12-2020 12.1 (15:40) -0.6 (-00:0) 5.8 5.83 (16:20) 3.06 (16:20) 0 0 0 0 0
29-12-2020 13.7 (14:30) 4.7 (00:00) 9.2 7.78 (14:10) 5 (14:30) 0 0 0 0 0
28-12-2020 13.6 (11:00) 6.6 (00:00) 10.1 11.94 (12:00) 7.5 (12:00) 0.6 0 0.6 0 0
27-12-2020 13.6 (15:00) 0.9 (00:00) 7.3 4.17 (04:10) 2.22 (03:20) 0 0 0 0 0
26-12-2020 13.2 (15:00) 3.2 (00:00) 8.2 10.83 (14:40) 5.28 (13:00) 0 0 0 0 0
25-12-2020 16 (13:50) 7.4 (00:00) 11.7 10.28 (15:40) 5 (21:50) 0 0 0 0 0
24-12-2020 16.8 (16:00) 8.6 (00:00) 12.7 3.33 (12:20) 2.22 (14:30) 0 0 0 0 0

Gráficas

Temp. máximas Temp. mínimas Temp. medias Precipitaciones Rachas de viento máximas Velocidades máximas media en intervalos de 10 minutos

Datos horarios

Fecha y hora oficial Temperatura (ºC) Velocidad del viento (km/h) Dirección del viento Racha (km/h) Dirección de racha Precipitación (mm) Presión (hPa) Tendencia (hPa) Humedad (%)
2021-01-21 23:00:00 14.3 22 Sur 39 Sur 0 -- -- 93
2021-01-21 22:00:00 14.2 16 Sur 32 Sudoeste 0 -- -- 93
2021-01-21 21:00:00 14.2 13 Sur 26 Sudoeste 0 -- -- 93
2021-01-21 20:00:00 14.4 12 Sudoeste 30 Sudoeste 0 -- -- 91
2021-01-21 19:00:00 14.4 14 Sudoeste 27 Sudoeste 0 -- -- 89
2021-01-21 18:00:00 15 12 Sudoeste 35 Sur 0 -- -- 85
2021-01-21 17:00:00 15.9 12 Sudoeste 29 Sudoeste 0 -- -- 82
2021-01-21 16:00:00 16.4 9 Sudoeste 37 Oeste 0 -- -- 81
2021-01-21 15:00:00 16.7 6 Sudoeste 26 Oeste 0 -- -- 81
2021-01-21 14:00:00 15.4 6 Oeste 22 Oeste 0 -- -- 88
2021-01-21 13:00:00 15.2 7 Sudoeste 23 Sudoeste 0 -- -- 87
2021-01-21 12:00:00 14.2 9 Sudoeste 20 Sudoeste 0.4 -- -- 96
2021-01-21 11:00:00 13 12 Sur 23 Sur 0 -- -- 96
2021-01-21 10:00:00 11.8 10 Sur 16 Sur 0 -- -- 98
2021-01-21 09:00:00 10.5 5 Sur 8 Sudoeste 0 -- -- 98
2021-01-21 08:00:00 10.7 4 Sudoeste 9 Sudoeste 0 -- -- 97
2021-01-21 07:00:00 11.1 5 Sur 11 Oeste 1 -- -- 97
2021-01-21 06:00:00 10.4 5 Sur 9 Sur 0 -- -- 96
2021-01-21 05:00:00 10.7 4 Sur 9 Sur 0 -- -- 95
2021-01-21 04:00:00 10.9 5 Sur 13 Sur 0 -- -- 95
2021-01-21 03:00:00 11 6 Sur 11 Sur 0 -- -- 95
2021-01-21 02:00:00 11.2 5 Sur 11 Sudoeste 0 -- -- 94
2021-01-21 01:00:00 11.4 6 Sudoeste 14 Sudoeste 0 -- -- 93
2021-01-21 00:00:00 11.5 5 Sudoeste 12 Oeste 0 -- -- 92
2021-01-20 23:00:00 11.9 6 Sudoeste 14 Sudoeste 0 -- -- 90
2021-01-20 22:00:00 12.5 5 Sudoeste 16 Sudoeste 0 -- -- 88
2021-01-20 21:00:00 12.6 3 Sudoeste 18 Sudoeste 0 -- -- 87
2021-01-20 20:00:00 12.8 7 Sudoeste 21 Sudoeste 0 -- -- 90
2021-01-20 19:00:00 13.1 12 Sudoeste 32 Sudoeste 0.2 -- -- 93
2021-01-20 18:00:00 13.6 17 Sur 30 Sur 0 -- -- 94
2021-01-20 17:00:00 13.9 18 Sur 30 Sudoeste 0 -- -- 94
2021-01-20 16:00:00 13.4 11 Sur 22 Sudeste 2.4 -- -- 97
2021-01-20 15:00:00 12 15 Sur 41 Sudeste 7 -- -- 96
2021-01-20 14:00:00 12.5 23 Sur 40 Sur 1.4 -- -- 95
2021-01-20 13:00:00 12.6 27 Sur 49 Sur 1.4 -- -- 96
2021-01-20 12:00:00 12.2 32 Sur 51 Sur 4 -- -- 96
2021-01-20 11:00:00 11.6 18 Sur 45 Sur 3.8 -- -- 96
2021-01-20 10:00:00 11.7 28 Sur 49 Sur 1.8 -- -- 94
2021-01-20 09:00:00 11.8 30 Sur 51 Sur 1 -- -- 93
2021-01-20 08:00:00 12.3 27 Sur 44 Sur 0 -- -- 86
2021-01-20 07:00:00 12.4 23 Sur 41 Sur 0 -- -- 85
2021-01-20 06:00:00 12.1 21 Sur 39 Sur 0 -- -- 85
2021-01-20 05:00:00 12.4 19 Sur 36 Sudoeste 0 -- -- 84
2021-01-20 04:00:00 12 18 Sur 31 Sur 0 -- -- 84
2021-01-20 03:00:00 12 15 Sur 35 Sur 0 -- -- 83
2021-01-20 02:00:00 11.5 15 Sur 24 Sur 0 -- -- 82
2021-01-20 01:00:00 10.9 11 Sur 18 Sur 0 -- -- 85
2021-01-20 00:00:00 11.1 8 Sur 17 Sur 0 -- -- 84
2021-01-19 23:00:00 11 9 Sur 15 Sudeste 0 -- -- 84
2021-01-19 22:00:00 10.5 9 Sur 16 Sudeste 0 -- -- 86
2021-01-19 21:00:00 10.7 10 Sudeste 17 Sudeste 0 -- -- 86
2021-01-19 20:00:00 11.3 6 Sur 12 Sur 0 -- -- 85
2021-01-19 19:00:00 12.4 3 Sudoeste 9 Oeste 0 -- -- 77
2021-01-19 18:00:00 14.4 4 Sur 9 Sur 0 -- -- 68
2021-01-19 17:00:00 15.7 8 Sur 23 Sur 0 -- -- 62
2021-01-19 16:00:00 16.3 9 Sur 20 Sur 0 -- -- 58
2021-01-19 15:00:00 15 10 Sudoeste 24 Sur 0 -- -- 64
2021-01-19 14:00:00 15.2 11 Sur 24 Sudoeste 0 -- -- 66
2021-01-19 13:00:00 14 13 Sur 21 Sur 0 -- -- 68
2021-01-19 12:00:00 13 6 Sudeste 14 Sudeste 0 -- -- 72
2021-01-19 11:00:00 10.3 10 Sudeste 18 Sudeste 0 -- -- 88
2021-01-19 10:00:00 7.8 11 Sudeste 20 Sudeste 0 -- -- 98
2021-01-19 09:00:00 6.1 8 Sudeste 16 Sudeste 0 -- -- 99
2021-01-19 08:00:00 6.5 3 Sudeste 16 Sudeste 0 -- -- 98
2021-01-19 07:00:00 6.2 5 Sudeste 15 Sudeste 0 -- -- 98
2021-01-19 06:00:00 6.5 5 Sudeste 9 Sudeste 0 -- -- 99
2021-01-19 05:00:00 5 4 Sudeste 9 Este 0 -- -- 98
2021-01-19 04:00:00 6 6 Este 9 Este 0 -- -- 97
2021-01-19 03:00:00 6 3 Sudeste 6 Este 0 -- -- 97
2021-01-19 02:00:00 4.7 3 Sudeste -- -- 0 -- -- 95
2021-01-19 01:00:00 7.3 3 Sudeste 6 Este 0 -- -- 95
2021-01-19 00:00:00 7.4 3 Sudeste 6 Sudeste 0 -- -- 94
2021-01-18 23:00:00 7.5 4 Sudeste 5 Sudeste 0 -- -- 95
2021-01-18 22:00:00 6.6 4 Este 8 Este 0 -- -- 94
2021-01-18 21:00:00 7 4 Sudeste 6 Sudeste 0 -- -- 92
2021-01-18 20:00:00 8.5 2 Este 4 Este 0 -- -- 89
2021-01-18 19:00:00 11.3 0 Calma 6 Noroeste 0 -- -- 83
2021-01-18 18:00:00 14.2 5 Noroeste 10 Noroeste 0 -- -- 77
2021-01-18 17:00:00 15.7 4 Oeste 16 Sudoeste 0 -- -- 73
2021-01-18 16:00:00 15.6 5 Oeste 21 Oeste 0 -- -- 73
2021-01-18 15:00:00 15 11 Oeste 20 Oeste 0 -- -- 74
2021-01-18 14:00:00 15.2 5 Sudoeste 21 Sur 0 -- -- 69
2021-01-18 13:00:00 13.8 8 Sur 13 Sur 0 -- -- 76
2021-01-18 12:00:00 12.3 8 Sur 14 Sudoeste 0 -- -- 82
2021-01-18 11:00:00 9.6 4 Sur 7 Sur 0 -- -- 95
2021-01-18 10:00:00 4.2 3 Sur 3 Sur 0 -- -- 98
2021-01-18 09:00:00 1.4 0 Calma 3 Sur 0 -- -- 96
2021-01-18 08:00:00 2.7 0 Calma 7 Este 0 -- -- 96
2021-01-18 07:00:00 2 7 Este 8 Este 0 -- -- 95
2021-01-18 06:00:00 2.6 4 Este 7 Sudeste 0 -- -- 93
2021-01-18 05:00:00 4 3 Sur 8 Sudeste 0 -- -- 93
2021-01-18 04:00:00 3.5 4 Sudeste 6 Este 0 -- -- 93
2021-01-18 03:00:00 3.9 5 Sudeste 12 Oeste 0 -- -- 91
2021-01-18 02:00:00 4.3 5 Este 9 Sudeste 0 -- -- 89
2021-01-18 01:00:00 4.5 3 Sudoeste 7 Sudeste 0 -- -- 92
2021-01-18 00:00:00 5.3 5 Sudeste 8 Sudeste 0 -- -- 90
2021-01-17 23:00:00 6.2 6 Sudoeste 7 Sudoeste 0 -- -- 90
2021-01-17 22:00:00 6.7 6 Sudoeste 7 Sur 0 -- -- 89
2021-01-17 21:00:00 6.2 2 Sudoeste 5 Sudoeste 0 -- -- 89
2021-01-17 20:00:00 7.6 0 Calma 5 Nordeste 0 -- -- 85
2021-01-17 19:00:00 11.2 4 Este 5 Nordeste 0 -- -- 72
2021-01-17 18:00:00 15.6 0 Calma 12 Nordeste 0 -- -- 55
2021-01-17 17:00:00 17.2 6 Nordeste 12 Nordeste 0 -- -- 53
2021-01-17 16:00:00 16.7 6 Nordeste 12 Nordeste 0 -- -- 53
2021-01-17 15:00:00 15.5 4 Nordeste 10 Norte 0 -- -- 61
2021-01-17 14:00:00 13.8 6 Noroeste 10 Noroeste 0 -- -- 66
2021-01-17 13:00:00 11.7 3 Noroeste 8 Norte 0 -- -- 71
2021-01-17 12:00:00 10.3 5 Noroeste 9 Noroeste 0 -- -- 78
2021-01-17 11:00:00 8.2 2 Noroeste 5 Sudeste 0 -- -- 85
2021-01-17 10:00:00 3.2 3 Sudeste 4 Sudeste 0 -- -- 97
2021-01-17 09:00:00 1.1 0 Calma 3 Sudoeste 0 -- -- 95
2021-01-17 08:00:00 2.4 0 Calma 9 Este 0 -- -- 93
2021-01-17 07:00:00 3 3 Este 8 Sudeste 0 -- -- 93
2021-01-17 06:00:00 3.1 2 Sudeste 9 Este 0 -- -- 95
2021-01-17 05:00:00 2.9 6 Este 10 Este 0 -- -- 96
2021-01-17 04:00:00 2.6 4 Este 6 Este 0 -- -- 94
2021-01-17 03:00:00 3.2 3 Sur 8 Sudeste 0 -- -- 92
2021-01-17 02:00:00 3.9 4 Sur 6 Sur 0 -- -- 95
2021-01-17 01:00:00 3.1 2 Sudoeste 4 Sur 0 -- -- 93
2021-01-17 00:00:00 4.1 2 Sur 4 Sudeste 0 -- -- 90
2021-01-16 23:00:00 7.1 0 Calma 8 Sur 0 -- -- 84
2021-01-16 22:00:00 8.4 4 Sur 17 Sudeste 0 -- -- 76
2021-01-16 21:00:00 9.7 12 Sudeste 21 Sudeste 0 -- -- 64
2021-01-16 20:00:00 10.7 6 Este 17 Este 0 -- -- 55
2021-01-16 19:00:00 11.6 7 Este 21 Nordeste 0 -- -- 55
2021-01-16 18:00:00 14.2 11 Nordeste 30 Nordeste 0 -- -- 45
2021-01-16 17:00:00 16.4 15 Nordeste 28 Nordeste 0 -- -- 45
2021-01-16 16:00:00 16.3 17 Nordeste 33 Nordeste 0 -- -- 42
2021-01-16 15:00:00 15.3 15 Nordeste 35 Nordeste 0 -- -- 52
2021-01-16 14:00:00 13.7 17 Nordeste 33 Nordeste 0 -- -- 55
2021-01-16 13:00:00 12.2 15 Nordeste 30 Nordeste 0 -- -- 59
2021-01-16 12:00:00 10.1 13 Nordeste 23 Nordeste 0 -- -- 71
2021-01-16 11:00:00 7.2 7 Nordeste 16 Nordeste 0 -- -- 80
2021-01-16 10:00:00 4.5 7 Este 15 Nordeste 0 -- -- 88
2021-01-16 09:00:00 2.5 4 Nordeste 12 Este 0 -- -- 88
2021-01-16 08:00:00 4 7 Este 14 Nordeste 0 -- -- 94
2021-01-16 07:00:00 2.7 6 Este 12 Nordeste 0 -- -- 98
2021-01-16 06:00:00 3.1 5 Este 8 Este 0 -- -- 98
2021-01-16 05:00:00 2 4 Nordeste 10 Nordeste 0 -- -- 98
2021-01-16 04:00:00 3.2 0 Calma 6 Este 0 -- -- 97
2021-01-16 03:00:00 3.4 4 Este 7 Nordeste 0 -- -- 98
2021-01-16 02:00:00 2.5 4 Nordeste 8 Este 0 -- -- 97
2021-01-16 01:00:00 2.2 3 Este 4 Este 0 -- -- 96
2021-01-16 00:00:00 3 2 Sur 6 Sudoeste 0 -- -- 95
2021-01-15 23:00:00 3.9 4 Sudoeste 5 Sudoeste 0 -- -- 95
2021-01-15 22:00:00 5 0 Calma 5 Sudoeste 0 -- -- 92
2021-01-15 21:00:00 6.6 0 Calma 6 Oeste 0 -- -- 89
2021-01-15 20:00:00 6.2 2 Oeste 6 Sudoeste 0 -- -- 89
2021-01-15 19:00:00 9.1 3 Oeste 8 Noroeste 0 -- -- 79
2021-01-15 18:00:00 11.1 5 Noroeste 16 Norte 0 -- -- 72
2021-01-15 17:00:00 13.7 9 Norte 18 Noroeste 0 -- -- 59
2021-01-15 16:00:00 13.9 12 Norte 19 Norte 0 -- -- 58
2021-01-15 15:00:00 13.1 9 Norte 18 Norte 0 -- -- 61
2021-01-15 14:00:00 11.7 9 Norte 16 Norte 0 -- -- 66
2021-01-15 13:00:00 9.7 8 Norte 15 Nordeste 0 -- -- 76
2021-01-15 12:00:00 7.5 5 Norte 11 Nordeste 0 -- -- 90
2021-01-15 11:00:00 4.7 4 Nordeste 10 Nordeste 0 -- -- 99
2021-01-15 10:00:00 0.9 0 Calma 4 Noroeste 0 -- -- 98
2021-01-15 09:00:00 0 0 Calma 4 Nordeste 0 -- -- 97
2021-01-15 08:00:00 1.7 3 Nordeste 6 Nordeste 0 -- -- 96
2021-01-15 07:00:00 2.3 3 Nordeste 6 Este 0 -- -- 96
2021-01-15 06:00:00 3.3 6 Este 9 Este 0 -- -- 97
2021-01-15 05:00:00 3.5 5 Nordeste 8 Nordeste 0 -- -- 97
2021-01-15 04:00:00 3.7 6 Este 8 Nordeste 0 -- -- 98
2021-01-15 03:00:00 3.5 7 Este 8 Este 0 -- -- 98
2021-01-15 02:00:00 2.9 6 Este 8 Este 0 -- -- 97
2021-01-15 01:00:00 3.5 6 Este 8 Este 0 -- -- 97
2021-01-15 00:00:00 2.8 4 Este 6 Sudeste 0 -- -- 96
2021-01-14 23:00:00 3.9 2 Sudeste 5 Sudeste 0 -- -- 95
2021-01-14 22:00:00 4.9 2 Sur 5 Sur 0 -- -- 93
2021-01-14 21:00:00 5.7 4 Sudoeste 9 Sudoeste 0 -- -- 91
2021-01-14 20:00:00 6.4 4 Sudoeste 6 Sudoeste 0 -- -- 88
2021-01-14 19:00:00 8.5 3 Sudoeste 7 Oeste 0 -- -- 81
2021-01-14 18:00:00 10 4 Oeste 8 Oeste 0 -- -- 74
2021-01-14 17:00:00 11.3 5 Oeste 10 Noroeste 0 -- -- 68
2021-01-14 16:00:00 11.2 5 Oeste 13 Oeste 0 -- -- 70
2021-01-14 15:00:00 10.9 6 Noroeste 14 Noroeste 0 -- -- 69
2021-01-14 14:00:00 10 4 Oeste 12 Noroeste 0 -- -- 77
2021-01-14 13:00:00 8.2 7 Noroeste 12 Noroeste 0 -- -- 83
2021-01-14 12:00:00 7.6 5 Noroeste 9 Noroeste 0 -- -- 86
2021-01-14 11:00:00 7.1 3 Sur 8 Sur 0 -- -- 93
2021-01-14 10:00:00 2.7 0 Calma 5 Sudeste 0 -- -- 97
2021-01-14 09:00:00 0.3 2 Sudeste 4 Este 0 -- -- 94
2021-01-14 08:00:00 1.7 0 Calma 5 Noroeste 0 -- -- 92
2021-01-14 07:00:00 3.4 0 Calma 10 Sudeste 0 -- -- 90
2021-01-14 06:00:00 4.5 10 Sudeste 14 Sudeste 0 -- -- 88
2021-01-14 05:00:00 4.1 5 Sur 10 Sudeste 0 -- -- 87
2021-01-14 04:00:00 5.5 9 Sudeste 10 Sudeste 0 -- -- 82
2021-01-14 03:00:00 5.6 6 Sur 11 Sudeste 0 -- -- 81
2021-01-14 02:00:00 5.7 9 Sudeste 15 Sudeste 0 -- -- 82
2021-01-14 01:00:00 5.8 9 Sudeste 13 Sudeste 0 -- -- 84
2021-01-14 00:00:00 5 3 Sur 5 Sur 0 -- -- 90
2021-01-13 23:00:00 4.9 5 Sur 6 Sudoeste 0 -- -- 88
2021-01-13 22:00:00 5.6 4 Sur 6 Sur 0 -- -- 85
2021-01-13 21:00:00 6.2 3 Sudoeste 8 Oeste 0 -- -- 82
2021-01-13 20:00:00 4.7 3 Oeste 8 Oeste 0 -- -- 88
2021-01-13 19:00:00 7.5 0 Calma 6 Norte 0 -- -- 79
2021-01-13 18:00:00 10.9 6 Noroeste 12 Norte 0 -- -- 62
2021-01-13 17:00:00 12.8 8 Norte 17 Norte 0 -- -- 54
2021-01-13 16:00:00 12.9 8 Norte 19 Norte 0 -- -- 57
2021-01-13 15:00:00 12.1 10 Norte 21 Norte 0 -- -- 59
2021-01-13 14:00:00 11.2 9 Norte 20 Nordeste 0 -- -- 63
2021-01-13 13:00:00 9 11 Nordeste 19 Nordeste 0 -- -- 71
2021-01-13 12:00:00 6.8 5 Norte 10 Norte 0 -- -- 81
2021-01-13 11:00:00 4.3 4 Este 9 Norte 0 -- -- 96
2021-01-13 10:00:00 1.1 0 Calma 9 Este 0 -- -- 97
2021-01-13 09:00:00 -0.5 3 Este 7 Este 0 -- -- 97
2021-01-13 08:00:00 -0.5 2 Nordeste 4 Este 0 -- -- 95
2021-01-13 07:00:00 0.5 4 Sudeste 8 Nordeste 0 -- -- 95
2021-01-13 06:00:00 -0.1 3 Nordeste 6 Este 0 -- -- 94
2021-01-13 05:00:00 0.9 0 Calma 7 Este 0 -- -- 94
2021-01-13 04:00:00 1.4 6 Este 8 Este 0 -- -- 94
2021-01-13 03:00:00 1.9 2 Sudeste 7 Este 0 -- -- 92
2021-01-13 02:00:00 2.4 4 Este 7 Este 0 -- -- 91
2021-01-13 01:00:00 3.3 3 Este 7 Este 0 -- -- 88
2021-01-13 00:00:00 3.6 4 Este 9 Este 0 -- -- 89
2021-01-12 23:00:00 4.2 2 Nordeste 9 Este 0 -- -- 87
2021-01-12 22:00:00 5 4 Nordeste 9 Este 0 -- -- 86
2021-01-12 21:00:00 6 5 Este 9 Nordeste 0 -- -- 84
2021-01-12 20:00:00 6.5 4 Este 9 Este 0 -- -- 84
2021-01-12 19:00:00 7.8 4 Nordeste 9 Norte 0 -- -- 78
2021-01-12 18:00:00 9.9 6 Norte 13 Nordeste 0 -- -- 69
2021-01-12 17:00:00 11.9 6 Norte 14 Norte 0 -- -- 62
2021-01-12 16:00:00 12.1 9 Norte 15 Norte 0 -- -- 62
2021-01-12 15:00:00 11.8 9 Norte 15 Norte 0 -- -- 68
2021-01-12 14:00:00 10.8 7 Norte 15 Nordeste 0 -- -- 76
2021-01-12 13:00:00 9.2 7 Norte 14 Nordeste 0 -- -- 82
2021-01-12 12:00:00 7.5 5 Noroeste 9 Noroeste 0 -- -- 89
2021-01-12 11:00:00 6.1 3 Nordeste 12 Este 0 -- -- 94
2021-01-12 10:00:00 3.3 8 Este 16 Este 0 -- -- 98
2021-01-12 09:00:00 1.5 7 Este 12 Este 0 -- -- 98
2021-01-12 08:00:00 1 3 Este 6 Este 0 -- -- 98
2021-01-12 07:00:00 0.8 3 Este 5 Este 0 -- -- 98
2021-01-12 06:00:00 1.3 2 Este 5 Este 0 -- -- 98
2021-01-12 05:00:00 1.9 4 Este 7 Este 0 -- -- 98
2021-01-12 04:00:00 1.7 4 Este 9 Este 0 -- -- 97
2021-01-12 03:00:00 2.5 5 Este 8 Este 0 -- -- 97
2021-01-12 02:00:00 1.3 3 Este 7 Este 0 -- -- 96
2021-01-12 01:00:00 1.4 2 Sudeste 3 Este 0 -- -- 96
2021-01-12 00:00:00 2.3 0 Calma 4 Noroeste 0 -- -- 95
2021-01-11 23:00:00 3.5 0 Calma 6 Noroeste 0 -- -- 94
2021-01-11 22:00:00 3.9 0 Calma 5 Sudeste 0 -- -- 94
2021-01-11 21:00:00 4.4 2 Sudeste 4 Este 0 -- -- 92
2021-01-11 20:00:00 5.9 3 Este 8 Este 0 -- -- 89
2021-01-11 19:00:00 7.1 2 Este 11 Norte 0 -- -- 83
2021-01-11 18:00:00 9.3 7 Norte 17 Norte 0 -- -- 74
2021-01-11 17:00:00 10.9 11 Norte 19 Norte 0 -- -- 71
2021-01-11 16:00:00 11.2 9 Norte 19 Norte 0 -- -- 71
2021-01-11 15:00:00 10.7 11 Norte 20 Norte 0 -- -- 72
2021-01-11 14:00:00 9.7 9 Nordeste 21 Norte 0 -- -- 75
2021-01-11 13:00:00 8.7 11 Nordeste 26 Nordeste 0 -- -- 79
2021-01-11 12:00:00 7.5 10 Norte 22 Nordeste 0 -- -- 83
2021-01-11 11:00:00 5.1 12 Nordeste 21 Norte 0 -- -- 97
2021-01-11 10:00:00 3.1 2 Nordeste 11 Nordeste 0 -- -- 99
2021-01-11 09:00:00 1.9 6 Norte 10 Norte 0 -- -- 98
2021-01-11 08:00:00 2.4 2 Este 9 Nordeste 0 -- -- 98
2021-01-11 07:00:00 2.8 3 Este 9 Nordeste 0 -- -- 97
2021-01-11 06:00:00 3.2 4 Nordeste 12 Norte 0.2 -- -- 98
2021-01-11 05:00:00 2.4 5 Este 6 Este 0 -- -- 97
2021-01-11 04:00:00 2.6 0 Calma 9 Nordeste 0 -- -- 96
2021-01-11 03:00:00 3.3 4 Este 9 Nordeste 0 -- -- 96
2021-01-11 02:00:00 3.8 4 Este 8 Este 0 -- -- 95
2021-01-11 01:00:00 4.2 2 Este 9 Este 0 -- -- 95
2021-01-11 00:00:00 4.9 4 Este 15 Este 0 -- -- 95
2021-01-10 23:00:00 5.3 3 Este 6 Este 0 -- -- 96
2021-01-10 22:00:00 5.5 2 Nordeste 4 Norte 0 -- -- 95
2021-01-10 21:00:00 5.5 0 Calma 8 Norte 0 -- -- 93
2021-01-10 20:00:00 5.8 6 Norte 17 Nordeste 1.4 -- -- 90
2021-01-10 19:00:00 6.7 3 Noroeste 6 Noroeste 0 -- -- 88
2021-01-10 18:00:00 7.5 4 Norte 7 Norte 0 -- -- 80
2021-01-10 17:00:00 7.9 2 Norte 8 Nordeste 0 -- -- 76
2021-01-10 16:00:00 8 3 Nordeste 14 Nordeste 0 -- -- 73
2021-01-10 15:00:00 7.1 5 Nordeste 14 Norte 0 -- -- 82
2021-01-10 14:00:00 6.9 8 Nordeste 15 Nordeste 0 -- -- 84
2021-01-10 13:00:00 7 5 Nordeste 13 Nordeste 0 -- -- 80
2021-01-10 12:00:00 6.6 4 Este 15 Este 0 -- -- 88
2021-01-10 11:00:00 4.6 4 Este 14 Este 0 -- -- 97
2021-01-10 10:00:00 3.3 3 Este 8 Sudeste 0 -- -- 97
2021-01-10 09:00:00 3 4 Este 10 Este 0.2 -- -- 97
2021-01-10 08:00:00 3 4 Este 9 Este 0 -- -- 97
2021-01-10 07:00:00 2.9 0 Calma 4 Este 0.2 -- -- 97
2021-01-10 06:00:00 2.8 0 Calma 2 Noroeste 0 -- -- 96
2021-01-10 05:00:00 2.6 0 Calma 3 Sudoeste 0 -- -- 95
2021-01-10 04:00:00 2.9 0 Calma 7 Oeste 0 -- -- 94
2021-01-10 03:00:00 2.8 3 Sudoeste 9 Oeste 0 -- -- 92
2021-01-10 02:00:00 3.7 3 Sudoeste 9 Sudoeste 0 -- -- 90
2021-01-10 01:00:00 3.9 4 Sudoeste 7 Sudoeste 0 -- -- 91
2021-01-10 00:00:00 4.1 3 Sur 6 Sudoeste 0 -- -- 92
2021-01-09 23:00:00 5.2 3 Oeste 9 Oeste 0 -- -- 93
2021-01-09 22:00:00 5.3 6 Sur 19 Sudeste 0 -- -- 92
2021-01-09 21:00:00 5.8 11 Sudeste 22 Sudeste 0 -- -- 92
2021-01-09 20:00:00 6.2 13 Sudeste 20 Sudeste 0 -- -- 92
2021-01-09 19:00:00 6.6 12 Sur 29 Sur 0.4 -- -- 91
2021-01-09 18:00:00 8.6 12 Sur 19 Sur 0 -- -- 79
2021-01-09 17:00:00 9.8 5 Sudoeste 14 Sudoeste 0 -- -- 65
2021-01-09 16:00:00 10.1 4 Oeste 21 Oeste 0 -- -- 63
2021-01-09 15:00:00 10.3 7 Oeste 26 Oeste 0 -- -- 60
2021-01-09 14:00:00 10.2 11 Sudoeste 21 Sur 0 -- -- 67
2021-01-09 13:00:00 9.2 6 Sudoeste 17 Sudoeste 0 -- -- 75
2021-01-09 12:00:00 8.5 6 Sudoeste 15 Sur 0 -- -- 75
2021-01-09 11:00:00 6.9 6 Sur 12 Sudoeste 0 -- -- 80
2021-01-09 10:00:00 4.5 6 Sur 10 Sur 0 -- -- 91
2021-01-09 09:00:00 3.7 3 Sudoeste 10 Oeste 0 -- -- 91
2021-01-09 08:00:00 4.5 6 Oeste 22 Oeste 0 -- -- 87
2021-01-09 07:00:00 5 8 Oeste 21 Oeste 0 -- -- 86
2021-01-09 06:00:00 5.1 5 Oeste 15 Noroeste 0 -- -- 93
2021-01-09 05:00:00 5 5 Oeste 18 Oeste 0 -- -- 97
2021-01-09 04:00:00 5.2 3 Oeste 15 Noroeste 0 -- -- 99
2021-01-09 03:00:00 6.6 6 Sudoeste 18 Sudoeste 0 -- -- 99
2021-01-09 02:00:00 7.2 3 Oeste 19 Sudoeste 0 -- -- 99
2021-01-09 01:00:00 7.2 4 Sur 13 Sudoeste 0 -- -- 100
2021-01-09 00:00:00 7.2 2 Sudoeste 19 Oeste 0.2 -- -- 100
2021-01-08 23:00:00 7.2 12 Noroeste 24 Oeste 0 -- -- 99
2021-01-08 22:00:00 7.7 13 Noroeste 24 Noroeste 0 -- -- 99
2021-01-08 21:00:00 8.3 13 Noroeste 19 Noroeste 1.4 -- -- 98
2021-01-08 20:00:00 10.1 5 Noroeste 26 Sur 2.8 -- -- 97
2021-01-08 19:00:00 13.3 19 Sur 34 Sur 5.6 -- -- 96
2021-01-08 18:00:00 13.7 18 Sur 32 Sur 1.4 -- -- 89
2021-01-08 17:00:00 13.9 18 Sur 40 Sur 0.6 -- -- 91
2021-01-08 16:00:00 14 25 Sudeste 49 Sudeste 0 -- -- 89
2021-01-08 15:00:00 14.2 27 Sur 48 Sudeste 0 -- -- 86
2021-01-08 14:00:00 11.6 24 Sudeste 38 Sudeste 0.2 -- -- 100
2021-01-08 13:00:00 8.2 9 Este 22 Este 1.8 -- -- 100
2021-01-08 12:00:00 7.7 11 Nordeste 23 Nordeste 0.8 -- -- 100
2021-01-08 11:00:00 7 12 Nordeste 29 Nordeste 1 -- -- 100
2021-01-08 10:00:00 6.6 13 Nordeste 30 Nordeste 2.6 -- -- 100
2021-01-08 09:00:00 6.6 15 Nordeste 33 Nordeste 2 -- -- 99
2021-01-08 08:00:00 6.8 13 Nordeste 29 Nordeste 1.6 -- -- 99
2021-01-08 07:00:00 6.7 15 Nordeste 30 Nordeste 1.6 -- -- 99
2021-01-08 06:00:00 6.8 13 Nordeste 28 Nordeste 1.8 -- -- 99
2021-01-08 05:00:00 6.9 11 Nordeste 30 Este 0.2 -- -- 100
2021-01-08 04:00:00 6.7 12 Nordeste 28 Nordeste 0.2 -- -- 99
2021-01-08 03:00:00 6.6 10 Nordeste 25 Nordeste 0.8 -- -- 99
2021-01-08 02:00:00 6.6 10 Nordeste 25 Nordeste 2.6 -- -- 99
2021-01-08 01:00:00 6.7 10 Nordeste 31 Nordeste 2.4 -- -- 99
2021-01-08 00:00:00 6.7 13 Nordeste 27 Norte 2.6 -- -- 99
2021-01-07 23:00:00 6.9 14 Nordeste 30 Nordeste 4 -- -- 99
2021-01-07 22:00:00 7.2 12 Nordeste 27 Este 5 -- -- 99
2021-01-07 21:00:00 7.4 13 Nordeste 28 Nordeste 3.6 -- -- 99
2021-01-07 20:00:00 7.6 15 Nordeste 31 Nordeste 1.6 -- -- 99
2021-01-07 19:00:00 7.7 15 Nordeste 29 Norte 1 -- -- 98
2021-01-07 18:00:00 8.2 10 Nordeste 22 Nordeste 0.2 -- -- 98
2021-01-07 17:00:00 8.6 9 Norte 19 Nordeste 0 -- -- 98
2021-01-07 16:00:00 8.3 9 Nordeste 23 Este 0 -- -- 99
2021-01-07 15:00:00 8 10 Nordeste 22 Nordeste 0.4 -- -- 99
2021-01-07 14:00:00 7.8 10 Nordeste 26 Nordeste 0.6 -- -- 99
2021-01-07 13:00:00 7.5 10 Nordeste 24 Nordeste 1 -- -- 99
2021-01-07 12:00:00 7.2 13 Norte 24 Nordeste 1 -- -- 99
2021-01-07 11:00:00 7.1 13 Nordeste 22 Nordeste 0.4 -- -- 99
2021-01-07 10:00:00 6.8 10 Nordeste 24 Este 0.6 -- -- 99
2021-01-07 09:00:00 6.6 12 Nordeste 30 Nordeste 1.2 -- -- 99
2021-01-07 08:00:00 6.7 14 Norte 26 Nordeste 1.2 -- -- 98
2021-01-07 07:00:00 7 15 Nordeste 31 Nordeste 0.6 -- -- 98
2021-01-07 06:00:00 7.1 14 Nordeste 29 Nordeste 0.4 -- -- 98
2021-01-07 05:00:00 7.2 14 Nordeste 32 Norte 0.2 -- -- 98
2021-01-07 04:00:00 7.5 14 Nordeste 28 Nordeste 0.2 -- -- 98
2021-01-07 03:00:00 7.6 13 Nordeste 28 Nordeste 0.2 -- -- 98
2021-01-07 02:00:00 7.8 12 Nordeste 32 Nordeste 1 -- -- 97
2021-01-07 01:00:00 7.8 13 Nordeste 27 Nordeste 2.2 -- -- 97
2021-01-07 00:00:00 8 10 Nordeste 25 Nordeste 4 -- -- 97
2021-01-06 23:00:00 8.2 9 Nordeste 22 Nordeste 2.8 -- -- 96
2021-01-06 22:00:00 8.6 6 Nordeste 13 Nordeste 1.8 -- -- 95
2021-01-06 21:00:00 9.1 4 Este 8 Nordeste 1.4 -- -- 95
2021-01-06 20:00:00 9.4 2 Sudeste 3 Noroeste 0.4 -- -- 93
2021-01-06 19:00:00 10 0 Calma 4 Norte 0.2 -- -- 88
2021-01-06 18:00:00 11.6 2 Nordeste 12 Nordeste 0 -- -- 73
2021-01-06 17:00:00 12.4 6 Nordeste 16 Norte 0 -- -- 69
2021-01-06 16:00:00 12.5 7 Nordeste 19 Nordeste 0 -- -- 70
2021-01-06 15:00:00 12.2 12 Nordeste 20 Nordeste 0 -- -- 70
2021-01-06 14:00:00 11.9 11 Nordeste 20 Nordeste 0 -- -- 70
2021-01-06 13:00:00 10.7 8 Norte 14 Nordeste 0 -- -- 77
2021-01-06 12:00:00 8.9 2 Nordeste 14 Sudeste 0 -- -- 81
2021-01-06 11:00:00 6.8 5 Este 12 Este 0 -- -- 91
2021-01-06 10:00:00 4.8 3 Este 9 Este 0 -- -- 97
2021-01-06 09:00:00 3.3 3 Este 8 Este 0 -- -- 97
2021-01-06 08:00:00 2.8 5 Este 8 Este 0 -- -- 97
2021-01-06 07:00:00 1.9 0 Calma 3 Este 0 -- -- 96
2021-01-06 06:00:00 1.6 3 Noroeste 4 Noroeste 0 -- -- 96
2021-01-06 05:00:00 1.3 0 Calma 5 Este 0 -- -- 94
2021-01-06 04:00:00 1.7 0 Calma 5 Este 0 -- -- 93
2021-01-06 03:00:00 2.1 2 Sudeste 9 Nordeste 0 -- -- 91
2021-01-06 02:00:00 3.2 3 Nordeste 8 Nordeste 0 -- -- 88
2021-01-06 01:00:00 4 4 Nordeste 12 Nordeste 0 -- -- 87
2021-01-06 00:00:00 4.6 3 Nordeste 9 Nordeste 0 -- -- 85
2021-01-05 23:00:00 5.9 4 Nordeste 10 Este 0 -- -- 82
2021-01-05 22:00:00 7.3 5 Este 12 Este 0 -- -- 78
2021-01-05 21:00:00 8.2 5 Nordeste 15 Nordeste 0 -- -- 76
2021-01-05 20:00:00 8.9 6 Nordeste 14 Nordeste 0 -- -- 75
2021-01-05 19:00:00 9.8 5 Nordeste 14 Norte 0 -- -- 73
2021-01-05 18:00:00 10.9 8 Nordeste 14 Nordeste 0 -- -- 69
2021-01-05 17:00:00 11.8 8 Norte 13 Norte 0 -- -- 63
2021-01-05 16:00:00 12.6 3 Nordeste 9 Nordeste 0 -- -- 61
2021-01-05 15:00:00 12.2 3 Norte 10 Nordeste 0 -- -- 63
2021-01-05 14:00:00 12 6 Nordeste 12 Nordeste 0 -- -- 68
2021-01-05 13:00:00 12 4 Nordeste 15 Nordeste 0 -- -- 71
2021-01-05 12:00:00 10.7 4 Nordeste 12 Este 0 -- -- 73
2021-01-05 11:00:00 8.5 6 Este 12 Sudeste 0 -- -- 81
2021-01-05 10:00:00 4.9 5 Este 10 Sudeste 0 -- -- 93
2021-01-05 09:00:00 2.8 4 Este 7 Este 0 -- -- 93
2021-01-05 08:00:00 4 0 Calma 3 Oeste 0 -- -- 92
2021-01-05 07:00:00 4.9 0 Calma 5 Norte 0 -- -- 90
2021-01-05 06:00:00 5.5 3 Sur 5 Sudoeste 0 -- -- 87
2021-01-05 05:00:00 6.1 0 Calma 6 Este 0 -- -- 86
2021-01-05 04:00:00 6.6 3 Este 5 Este 0 -- -- 84
2021-01-05 03:00:00 7.1 2 Nordeste 10 Sudeste 0 -- -- 81
2021-01-05 02:00:00 7.9 6 Sudeste 13 Sudeste 0 -- -- 76
2021-01-05 01:00:00 7.9 8 Sudeste 16 Sudeste 0 -- -- 75
2021-01-05 00:00:00 7.8 7 Sur 12 Sur 0 -- -- 76
2021-01-04 23:00:00 7.5 4 Sur 8 Sudeste 0 -- -- 75
2021-01-04 22:00:00 6.3 3 Sur 6 Sur 0 -- -- 82
2021-01-04 21:00:00 6.2 2 Sudeste 5 Sur 0 -- -- 80
2021-01-04 20:00:00 7.9 4 Sur 8 Sudoeste 0 -- -- 74
2021-01-04 19:00:00 8.3 3 Sudoeste 5 Sudoeste 0 -- -- 70
2021-01-04 18:00:00 10.4 3 Sur 10 Sur 0 -- -- 63
2021-01-04 17:00:00 12.1 3 Noroeste 13 Oeste 0 -- -- 57
2021-01-04 16:00:00 12.1 7 Noroeste 18 Noroeste 0 -- -- 57
2021-01-04 15:00:00 11.7 11 Noroeste 18 Noroeste 0 -- -- 59
2021-01-04 14:00:00 11.1 8 Noroeste 15 Oeste 0 -- -- 61
2021-01-04 13:00:00 10 5 Oeste 11 Oeste 0 -- -- 65
2021-01-04 12:00:00 9.6 4 Sudoeste 9 Sudoeste 0 -- -- 72
2021-01-04 11:00:00 7.1 4 Sur 9 Sur 0 -- -- 85
2021-01-04 10:00:00 2.6 0 Calma 8 Sudeste 0 -- -- 97
2021-01-04 09:00:00 -0.3 3 Sur 5 Este 0 -- -- 96
2021-01-04 08:00:00 -0.1 3 Sur 6 Sudeste 0 -- -- 96
2021-01-04 07:00:00 0.4 3 Sudeste 6 Sur 0 -- -- 95
2021-01-04 06:00:00 0.1 3 Sur 6 Sudoeste 0 -- -- 94
2021-01-04 05:00:00 1 3 Sur 4 Sudoeste 0 -- -- 91
2021-01-04 04:00:00 3.3 0 Calma 8 Sudoeste 0 -- -- 86
2021-01-04 03:00:00 3.3 6 Sur 8 Sur 0 -- -- 90
2021-01-04 02:00:00 2.4 3 Sudoeste 7 Sur 0 -- -- 89
2021-01-04 01:00:00 3.2 4 Sur 6 Sudeste 0 -- -- 88
2021-01-04 00:00:00 3.4 5 Sur 7 Sur 0 -- -- 87
2021-01-03 23:00:00 5 5 Sur 8 Sur 0 -- -- 82
2021-01-03 22:00:00 5.5 5 Sur 8 Sudoeste 0 -- -- 82
2021-01-03 21:00:00 5.8 5 Sur 9 Sur 0 -- -- 80
2021-01-03 20:00:00 6.2 5 Sur 10 Sur 0 -- -- 76
2021-01-03 19:00:00 7.6 3 Sudoeste 7 Sudoeste 0 -- -- 67
2021-01-03 18:00:00 9.8 3 Sudoeste 7 Sudoeste 0 -- -- 51
2021-01-03 17:00:00 11.7 3 Sudoeste 14 Noroeste 0 -- -- 45
2021-01-03 16:00:00 11.5 7 Noroeste 15 Oeste 0 -- -- 43
2021-01-03 15:00:00 11.3 4 Oeste 10 Sur 0 -- -- 46
2021-01-03 14:00:00 10.6 4 Noroeste 12 Norte 0 -- -- 52
2021-01-03 13:00:00 9.3 6 Noroeste 10 Noroeste 0 -- -- 58
2021-01-03 12:00:00 8.7 3 Nordeste 9 Nordeste 0 -- -- 65
2021-01-03 11:00:00 6.4 4 Este 9 Este 0 -- -- 72
2021-01-03 10:00:00 2.4 3 Este 10 Este 0 -- -- 92
2021-01-03 09:00:00 0.3 6 Este 9 Este 0 -- -- 96
2021-01-03 08:00:00 -0.9 3 Sudeste 9 Este 0 -- -- 95
2021-01-03 07:00:00 -0.8 3 Sudeste 5 Este 0 -- -- 96
2021-01-03 06:00:00 -0.7 3 Este 10 Este 0 -- -- 94
2021-01-03 05:00:00 -0.6 0 Calma 5 Sudoeste 0 -- -- 94
2021-01-03 04:00:00 -0.6 3 Sur 4 Sudeste 0 -- -- 93
2021-01-03 03:00:00 0 6 Este 9 Este 0 -- -- 93
2021-01-03 02:00:00 -0.1 0 Calma 3 Este 0 -- -- 92
2021-01-03 01:00:00 0.7 0 Calma 4 Este 0 -- -- 90
2021-01-03 00:00:00 2.7 4 Este 7 Nordeste 0 -- -- 85
2021-01-02 23:00:00 2.9 3 Nordeste 6 Nordeste 0 -- -- 85
2021-01-02 22:00:00 4.6 5 Nordeste 10 Noroeste 0 -- -- 82
2021-01-02 21:00:00 6.4 6 Noroeste 16 Oeste 0 -- -- 75
2021-01-02 20:00:00 7.1 6 Sudoeste 13 Oeste 0 -- -- 75
2021-01-02 19:00:00 7.8 5 Sudoeste 8 Sudoeste 0 -- -- 75
2021-01-02 18:00:00 9.5 4 Oeste 11 Oeste 0 -- -- 66
2021-01-02 17:00:00 10.8 6 Oeste 16 Noroeste 0 -- -- 55
2021-01-02 16:00:00 10.7 6 Noroeste 19 Oeste 0 -- -- 54
2021-01-02 15:00:00 10.3 9 Noroeste 15 Noroeste 0 -- -- 53
2021-01-02 14:00:00 9.7 5 Norte 10 Noroeste 0 -- -- 63